createdAt,value
2023-01-31T00:00:00.623Z,96.11
2023-01-31T00:01:00.591Z,96.21
2023-01-31T00:02:00.623Z,96.21
2023-01-31T00:03:00.566Z,96.21
2023-01-31T00:04:00.522Z,96.31
2023-01-31T00:05:00.575Z,96.31
2023-01-31T00:06:00.492Z,96.21
2023-01-31T00:07:00.517Z,96.21
2023-01-31T00:08:00.520Z,96.21
2023-01-31T00:09:00.484Z,96.31
2023-01-31T00:10:00.458Z,96.21
2023-01-31T00:11:00.452Z,96.21
2023-01-31T00:12:00.438Z,96.21
2023-01-31T00:13:00.470Z,96.21
2023-01-31T00:14:00.404Z,96.31
2023-01-31T00:15:00.427Z,96.21
2023-01-31T00:16:00.444Z,96.21
2023-01-31T00:17:00.372Z,96.21
2023-01-31T00:18:00.445Z,96.21
2023-01-31T00:19:00.364Z,96.31
2023-01-31T00:20:00.327Z,96.21
2023-01-31T00:21:00.343Z,96.31
2023-01-31T00:22:00.278Z,96.42
2023-01-31T00:23:00.287Z,96.31
2023-01-31T00:24:00.325Z,96.31
2023-01-31T00:25:00.327Z,96.42
2023-01-31T00:26:00.244Z,96.31
2023-01-31T00:27:00.248Z,96.31
2023-01-31T00:28:00.194Z,96.31
2023-01-31T00:29:00.226Z,96.31
2023-01-31T00:30:00.189Z,96.31
2023-01-31T00:31:00.246Z,96.21
2023-01-31T00:32:00.404Z,96.31
2023-01-31T00:33:00.179Z,96.31
2023-01-31T00:34:00.133Z,96.31
2023-01-31T00:35:00.165Z,96.31
2023-01-31T00:36:00.109Z,96.21
2023-01-31T00:37:00.109Z,96.25
2023-01-31T00:38:00.109Z,96.25
2023-01-31T00:39:00.112Z,96.25
2023-01-31T00:40:00.091Z,96.25
2023-01-31T00:41:00.071Z,96.15
2023-01-31T00:42:00.169Z,96.25
2023-01-31T00:43:00.049Z,96.25
2023-01-31T00:44:00.021Z,96.25
2023-01-31T00:45:00.010Z,96.15
2023-01-31T00:45:59.999Z,96.15
2023-01-31T00:47:00.022Z,96.15
2023-01-31T00:47:59.952Z,96.15
2023-01-31T00:48:59.954Z,96.15
2023-01-31T00:49:59.935Z,96.15
2023-01-31T00:50:59.954Z,96.15
2023-01-31T00:51:59.915Z,96.15
2023-01-31T00:52:59.918Z,96.15
2023-01-31T00:53:59.864Z,96.15
2023-01-31T00:54:59.895Z,96.25
2023-01-31T00:55:59.842Z,96.30
2023-01-31T00:56:59.861Z,96.30
2023-01-31T00:57:59.818Z,96.41
2023-01-31T00:58:59.828Z,96.41
2023-01-31T00:59:59.808Z,96.51
2023-01-31T01:00:59.871Z,96.51
2023-01-31T01:01:59.864Z,96.51
2023-01-31T01:02:59.774Z,96.51
2023-01-31T01:03:59.748Z,96.51
2023-01-31T01:04:59.771Z,96.61
2023-01-31T01:05:59.712Z,96.61
2023-01-31T01:06:59.733Z,96.61
2023-01-31T01:07:59.692Z,96.61
2023-01-31T01:08:59.709Z,96.61
2023-01-31T01:09:59.679Z,96.72
2023-01-31T01:10:59.675Z,96.72
2023-01-31T01:11:59.643Z,96.72
2023-01-31T01:12:59.648Z,96.72
2023-01-31T01:13:59.605Z,96.82
2023-01-31T01:14:59.633Z,96.72
2023-01-31T01:15:59.658Z,96.82
2023-01-31T01:16:59.589Z,96.82
2023-01-31T01:17:59.580Z,96.82
2023-01-31T01:18:59.575Z,96.86
2023-01-31T01:19:59.527Z,96.86
2023-01-31T01:20:59.551Z,96.86
2023-01-31T01:21:59.530Z,96.86
2023-01-31T01:22:59.499Z,96.86
2023-01-31T01:23:59.488Z,96.97
2023-01-31T01:24:59.497Z,96.97
2023-01-31T01:25:59.445Z,96.97
2023-01-31T01:26:59.470Z,96.97
2023-01-31T01:27:59.427Z,96.97
2023-01-31T01:28:59.463Z,97.07
2023-01-31T01:29:59.397Z,97.07
2023-01-31T01:30:59.465Z,97.07
2023-01-31T01:31:59.434Z,97.17
2023-01-31T01:32:59.402Z,97.17
2023-01-31T01:33:59.345Z,97.17
2023-01-31T01:34:59.351Z,97.28
2023-01-31T01:35:59.330Z,97.28
2023-01-31T01:36:59.353Z,97.28
2023-01-31T01:37:59.324Z,97.28
2023-01-31T01:38:59.361Z,97.38
2023-01-31T01:39:59.275Z,97.38
2023-01-31T01:40:59.275Z,97.38
2023-01-31T01:41:59.261Z,97.49
2023-01-31T01:42:59.250Z,97.49
2023-01-31T01:43:59.276Z,97.59
2023-01-31T01:44:59.267Z,97.59
2023-01-31T01:45:59.191Z,97.59
2023-01-31T01:46:59.232Z,97.59
2023-01-31T01:47:59.154Z,97.70
2023-01-31T01:48:59.189Z,97.70
2023-01-31T01:49:59.143Z,97.70
2023-01-31T01:50:59.148Z,97.70
2023-01-31T01:51:59.140Z,97.80
2023-01-31T01:52:59.126Z,97.80
2023-01-31T01:53:59.106Z,97.91
2023-01-31T01:54:59.095Z,97.91
2023-01-31T01:55:59.087Z,97.91
2023-01-31T01:56:59.082Z,97.91
2023-01-31T01:57:59.048Z,98.05
2023-01-31T01:58:59.059Z,98.05
2023-01-31T01:59:59.029Z,98.05
2023-01-31T02:00:59.077Z,98.05
2023-01-31T02:01:59.083Z,98.05
2023-01-31T02:02:58.998Z,98.05
2023-01-31T02:03:58.957Z,98.05
2023-01-31T02:04:58.990Z,98.05
2023-01-31T02:05:58.981Z,98.16
2023-01-31T02:06:58.927Z,98.05
2023-01-31T02:07:58.930Z,98.16
2023-01-31T02:08:58.881Z,98.05
2023-01-31T02:09:58.899Z,98.05
2023-01-31T02:10:58.916Z,98.05
2023-01-31T02:11:58.878Z,98.16
2023-01-31T02:12:58.836Z,98.16
2023-01-31T02:13:58.847Z,98.16
2023-01-31T02:14:58.826Z,98.26
2023-01-31T02:15:58.848Z,98.26
2023-01-31T02:16:58.787Z,98.16
2023-01-31T02:17:58.813Z,98.26
2023-01-31T02:18:58.765Z,98.26
2023-01-31T02:19:58.786Z,98.26
2023-01-31T02:20:58.770Z,98.26
2023-01-31T02:21:58.757Z,98.36
2023-01-31T02:22:58.715Z,98.36
2023-01-31T02:23:58.762Z,98.36
2023-01-31T02:24:58.688Z,98.36
2023-01-31T02:25:58.715Z,98.36
2023-01-31T02:26:58.656Z,98.36
2023-01-31T02:27:58.696Z,98.36
2023-01-31T02:28:58.649Z,98.41
2023-01-31T02:29:58.648Z,98.41
2023-01-31T02:30:58.665Z,98.41
2023-01-31T02:31:58.636Z,98.41
2023-01-31T02:32:58.576Z,98.41
2023-01-31T02:33:58.602Z,98.41
2023-01-31T02:34:58.553Z,98.52
2023-01-31T02:35:58.572Z,98.52
2023-01-31T02:36:58.512Z,98.52
2023-01-31T02:37:58.534Z,98.62
2023-01-31T02:38:58.499Z,98.62
2023-01-31T02:39:58.498Z,98.62
2023-01-31T02:40:58.497Z,98.62
2023-01-31T02:41:58.501Z,98.62
2023-01-31T02:42:58.453Z,98.57
2023-01-31T02:43:58.477Z,98.57
2023-01-31T02:44:58.424Z,98.57
2023-01-31T02:45:58.486Z,98.57
2023-01-31T02:46:58.406Z,98.57
2023-01-31T02:47:58.437Z,98.47
2023-01-31T02:48:58.365Z,98.47
2023-01-31T02:49:58.372Z,98.47
2023-01-31T02:50:58.336Z,98.47
2023-01-31T02:51:58.365Z,98.47
2023-01-31T02:52:58.348Z,98.47
2023-01-31T02:53:58.347Z,98.47
2023-01-31T02:54:58.309Z,98.47
2023-01-31T02:55:58.333Z,98.47
2023-01-31T02:56:58.274Z,98.47
2023-01-31T02:57:58.300Z,98.47
2023-01-31T02:58:58.256Z,98.36
2023-01-31T02:59:58.265Z,98.47
2023-01-31T03:00:58.271Z,98.47
2023-01-31T03:01:58.221Z,98.47
2023-01-31T03:02:58.210Z,98.36
2023-01-31T03:03:58.228Z,98.47
2023-01-31T03:04:58.179Z,98.47
2023-01-31T03:05:58.165Z,98.47
2023-01-31T03:06:58.131Z,98.36
2023-01-31T03:07:58.156Z,98.36
2023-01-31T03:08:58.110Z,98.36
2023-01-31T03:09:58.148Z,98.36
2023-01-31T03:10:58.079Z,98.36
2023-01-31T03:11:58.090Z,98.36
2023-01-31T03:12:58.063Z,98.36
2023-01-31T03:13:58.119Z,98.36
2023-01-31T03:14:58.024Z,98.36
2023-01-31T03:15:58.061Z,98.36
2023-01-31T03:16:58.059Z,98.36
2023-01-31T03:17:58.014Z,98.47
2023-01-31T03:18:58.004Z,98.47
2023-01-31T03:19:58.004Z,98.47
2023-01-31T03:20:57.967Z,98.47
2023-01-31T03:21:57.989Z,98.47
2023-01-31T03:22:57.937Z,98.47
2023-01-31T03:23:57.963Z,98.47
2023-01-31T03:24:57.923Z,98.57
2023-01-31T03:25:57.918Z,98.57
2023-01-31T03:26:57.885Z,98.57
2023-01-31T03:27:57.903Z,98.68
2023-01-31T03:28:57.852Z,98.68
2023-01-31T03:29:57.873Z,98.78
2023-01-31T03:30:57.923Z,98.78
2023-01-31T03:31:57.982Z,98.78
2023-01-31T03:32:57.805Z,98.68
2023-01-31T03:33:57.800Z,98.68
2023-01-31T03:34:57.760Z,98.68
2023-01-31T03:35:57.779Z,98.78
2023-01-31T03:36:57.753Z,98.78
2023-01-31T03:37:57.746Z,98.78
2023-01-31T03:38:57.719Z,98.78
2023-01-31T03:39:57.780Z,98.78
2023-01-31T03:40:57.689Z,98.93
2023-01-31T03:41:57.744Z,98.93
2023-01-31T03:42:57.669Z,98.93
2023-01-31T03:43:57.676Z,98.93
2023-01-31T03:44:57.642Z,98.93
2023-01-31T03:45:57.719Z,98.93
2023-01-31T03:46:57.622Z,98.93
2023-01-31T03:47:57.600Z,98.93
2023-01-31T03:48:57.602Z,99.04
2023-01-31T03:49:57.577Z,99.04
2023-01-31T03:50:57.585Z,99.04
2023-01-31T03:51:57.602Z,99.04
2023-01-31T03:52:57.570Z,99.04
2023-01-31T03:53:57.545Z,99.04
2023-01-31T03:54:57.537Z,99.04
2023-01-31T03:55:57.521Z,99.04
2023-01-31T03:56:57.500Z,99.04
2023-01-31T03:57:57.463Z,99.04
2023-01-31T03:58:57.498Z,99.04
2023-01-31T03:59:57.444Z,98.93
2023-01-31T04:00:57.447Z,98.93
2023-01-31T04:01:57.459Z,98.93
2023-01-31T04:02:57.448Z,98.83
2023-01-31T04:03:57.404Z,98.83
2023-01-31T04:04:57.403Z,98.83
2023-01-31T04:05:57.362Z,98.93
2023-01-31T04:06:57.388Z,98.83
2023-01-31T04:07:57.333Z,98.83
2023-01-31T04:08:57.372Z,98.83
2023-01-31T04:09:57.327Z,98.83
2023-01-31T04:10:57.328Z,98.87
2023-01-31T04:11:57.285Z,98.87
2023-01-31T04:12:57.294Z,98.87
2023-01-31T04:13:57.286Z,98.97
2023-01-31T04:14:57.275Z,98.97
2023-01-31T04:15:57.278Z,98.97
2023-01-31T04:16:57.234Z,99.08
2023-01-31T04:17:57.206Z,99.08
2023-01-31T04:18:57.255Z,99.08
2023-01-31T04:19:57.184Z,99.08
2023-01-31T04:20:57.192Z,99.08
2023-01-31T04:21:57.159Z,99.08
2023-01-31T04:22:57.182Z,99.18
2023-01-31T04:23:57.144Z,99.18
2023-01-31T04:24:57.149Z,99.18
2023-01-31T04:25:57.109Z,99.18
2023-01-31T04:26:57.119Z,99.18
2023-01-31T04:27:57.069Z,99.18
2023-01-31T04:28:57.095Z,99.18
2023-01-31T04:29:57.130Z,99.18
2023-01-31T04:30:57.111Z,99.18
2023-01-31T04:31:57.182Z,99.29
2023-01-31T04:32:57.049Z,99.33
2023-01-31T04:33:56.999Z,99.23
2023-01-31T04:34:57.071Z,99.23
2023-01-31T04:35:56.961Z,99.33
2023-01-31T04:36:56.979Z,99.33
2023-01-31T04:37:56.960Z,99.44
2023-01-31T04:38:56.955Z,99.44
2023-01-31T04:39:56.937Z,99.44
2023-01-31T04:40:56.940Z,99.44
2023-01-31T04:41:56.907Z,99.44
2023-01-31T04:42:56.901Z,99.54
2023-01-31T04:43:56.867Z,99.54
2023-01-31T04:44:56.882Z,99.65
2023-01-31T04:45:56.862Z,99.65
2023-01-31T04:46:56.855Z,99.65
2023-01-31T04:47:56.819Z,99.75
2023-01-31T04:48:56.814Z,99.75
2023-01-31T04:49:56.781Z,99.75
2023-01-31T04:50:56.818Z,99.75
2023-01-31T04:51:56.772Z,99.75
2023-01-31T04:52:56.780Z,99.85
2023-01-31T04:53:56.744Z,99.85
2023-01-31T04:54:56.754Z,99.85
2023-01-31T04:55:56.732Z,99.85
2023-01-31T04:56:56.746Z,99.90
2023-01-31T04:57:56.686Z,99.90
2023-01-31T04:58:56.703Z,99.90
2023-01-31T04:59:56.651Z,99.99
2023-01-31T05:00:56.815Z,99.99
2023-01-31T05:01:56.658Z,99.99
2023-01-31T05:02:56.750Z,99.99
2023-01-31T05:03:56.611Z,99.99
2023-01-31T05:04:56.608Z,99.99
2023-01-31T05:05:56.570Z,99.99
2023-01-31T05:06:56.622Z,99.99
2023-01-31T05:07:56.559Z,99.99
2023-01-31T05:08:56.576Z,99.99
2023-01-31T05:09:56.524Z,99.99
2023-01-31T05:10:56.538Z,99.99
2023-01-31T05:11:56.535Z,99.99
2023-01-31T05:12:56.521Z,99.99
2023-01-31T05:13:56.476Z,99.99
2023-01-31T05:14:56.480Z,99.99
2023-01-31T05:15:56.467Z,99.99
2023-01-31T05:16:56.467Z,99.99
2023-01-31T05:17:56.441Z,99.99
2023-01-31T05:18:56.432Z,99.99
2023-01-31T05:19:56.382Z,99.99
2023-01-31T05:20:56.405Z,99.99
2023-01-31T05:21:56.369Z,99.99
2023-01-31T05:22:56.416Z,99.99
2023-01-31T05:23:56.353Z,99.99
2023-01-31T05:24:58.461Z,99.99
2023-01-31T05:25:56.324Z,99.99
2023-01-31T05:26:56.357Z,99.99
2023-01-31T05:27:56.297Z,99.99
2023-01-31T05:28:56.307Z,99.99
2023-01-31T05:29:56.265Z,99.99
2023-01-31T05:30:56.388Z,99.99
2023-01-31T05:31:56.329Z,99.99
2023-01-31T05:32:56.302Z,99.99
2023-01-31T05:33:56.210Z,99.99
2023-01-31T05:34:56.226Z,99.99
2023-01-31T05:35:56.179Z,99.99
2023-01-31T05:36:56.243Z,99.99
2023-01-31T05:37:56.181Z,99.99
2023-01-31T05:38:56.180Z,99.99
2023-01-31T05:39:57.034Z,99.99
2023-01-31T05:40:56.173Z,99.99
2023-01-31T05:41:56.094Z,99.99
2023-01-31T05:42:56.134Z,99.99
2023-01-31T05:43:56.088Z,99.99
2023-01-31T05:44:56.132Z,99.99
2023-01-31T05:45:56.207Z,99.99
2023-01-31T05:46:56.123Z,99.99
2023-01-31T05:47:56.041Z,99.99
2023-01-31T05:48:56.063Z,99.99
2023-01-31T05:49:56.014Z,99.99
2023-01-31T05:50:55.998Z,99.99
2023-01-31T05:51:56.008Z,99.99
2023-01-31T05:52:55.991Z,99.99
2023-01-31T05:53:55.948Z,99.99
2023-01-31T05:54:55.980Z,99.99
2023-01-31T05:55:55.909Z,99.99
2023-01-31T05:56:55.941Z,99.99
2023-01-31T05:57:55.935Z,99.99
2023-01-31T05:58:55.934Z,99.99
2023-01-31T05:59:55.880Z,99.99
2023-01-31T06:00:55.879Z,99.99
2023-01-31T06:01:55.894Z,99.99
2023-01-31T06:02:55.879Z,99.99
2023-01-31T06:03:55.815Z,99.99
2023-01-31T06:04:55.866Z,99.99
2023-01-31T06:05:55.806Z,99.99
2023-01-31T06:06:55.793Z,99.99
2023-01-31T06:07:55.759Z,99.99
2023-01-31T06:08:55.813Z,99.99
2023-01-31T06:09:55.752Z,99.99
2023-01-31T06:10:55.745Z,99.99
2023-01-31T06:11:55.714Z,99.99
2023-01-31T06:12:55.748Z,99.99
2023-01-31T06:13:55.710Z,99.99
2023-01-31T06:14:55.694Z,99.99
2023-01-31T06:15:55.657Z,99.99
2023-01-31T06:16:55.671Z,99.99
2023-01-31T06:17:55.633Z,99.99
2023-01-31T06:18:55.689Z,99.99
2023-01-31T06:19:55.673Z,99.99
2023-01-31T06:20:55.615Z,99.99
2023-01-31T06:21:55.579Z,99.99
2023-01-31T06:22:55.575Z,99.99
2023-01-31T06:23:55.563Z,99.99
2023-01-31T06:24:55.721Z,99.99
2023-01-31T06:25:55.539Z,99.99
2023-01-31T06:26:55.553Z,99.99
2023-01-31T06:27:55.504Z,99.99
2023-01-31T06:28:55.548Z,99.99
2023-01-31T06:29:55.499Z,99.99
2023-01-31T06:30:55.590Z,99.99
2023-01-31T06:31:55.445Z,99.99
2023-01-31T06:32:55.460Z,99.99
2023-01-31T06:33:55.453Z,99.99
2023-01-31T06:34:56.183Z,99.99
2023-01-31T06:35:55.881Z,99.99
2023-01-31T06:36:55.813Z,99.99
2023-01-31T06:37:55.851Z,99.99
2023-01-31T06:38:55.878Z,99.99
2023-01-31T06:39:55.621Z,99.99
2023-01-31T06:40:55.476Z,99.99
2023-01-31T06:41:55.647Z,99.99
2023-01-31T06:42:55.390Z,99.99
2023-01-31T06:43:55.342Z,99.99
2023-01-31T06:44:55.336Z,99.99
2023-01-31T06:45:55.291Z,99.99
2023-01-31T06:46:55.277Z,99.99
2023-01-31T06:47:55.255Z,99.99
2023-01-31T06:48:55.717Z,99.99
2023-01-31T06:49:55.629Z,99.99
2023-01-31T06:50:55.694Z,99.99
2023-01-31T06:51:55.627Z,99.99
2023-01-31T06:52:55.191Z,99.99
2023-01-31T06:53:55.267Z,99.99
2023-01-31T06:54:55.209Z,99.99
2023-01-31T06:55:55.328Z,99.99
2023-01-31T06:56:55.188Z,99.99
2023-01-31T06:57:55.096Z,99.99
2023-01-31T06:58:55.126Z,99.99
2023-01-31T06:59:55.077Z,99.99
2023-01-31T07:00:55.174Z,99.99
2023-01-31T07:01:55.179Z,99.99
2023-01-31T07:02:55.067Z,99.99
2023-01-31T07:03:55.035Z,99.99
2023-01-31T07:04:55.112Z,99.99
2023-01-31T07:05:55.003Z,99.99
2023-01-31T07:06:55.031Z,99.99
2023-01-31T07:07:55.020Z,99.99
2023-01-31T07:08:55.003Z,99.99
2023-01-31T07:09:55.004Z,99.99
2023-01-31T07:10:55.005Z,99.99
2023-01-31T07:11:54.976Z,99.99
2023-01-31T07:12:54.961Z,99.99
2023-01-31T07:13:54.931Z,99.99
2023-01-31T07:14:54.905Z,99.99
2023-01-31T07:15:54.879Z,99.99
2023-01-31T07:16:54.907Z,99.99
2023-01-31T07:17:54.864Z,99.99
2023-01-31T07:18:54.923Z,99.99
2023-01-31T07:19:54.839Z,99.99
2023-01-31T07:20:54.834Z,99.99
2023-01-31T07:21:54.805Z,99.99
2023-01-31T07:22:56.653Z,99.99
2023-01-31T07:23:54.784Z,99.99
2023-01-31T07:24:54.797Z,99.99
2023-01-31T07:25:54.750Z,99.99
2023-01-31T07:26:54.792Z,99.99
2023-01-31T07:27:54.716Z,99.99
2023-01-31T07:28:54.728Z,99.99
2023-01-31T07:29:54.719Z,99.99
2023-01-31T07:30:54.759Z,99.99
2023-01-31T07:31:54.659Z,99.99
2023-01-31T07:32:54.699Z,99.99
2023-01-31T07:33:54.661Z,99.99
2023-01-31T07:34:54.696Z,99.99
2023-01-31T07:35:54.598Z,99.99
2023-01-31T07:36:54.652Z,99.99
2023-01-31T07:37:54.592Z,99.99
2023-01-31T07:38:54.614Z,99.99
2023-01-31T07:39:54.563Z,99.99
2023-01-31T07:40:54.626Z,99.99
2023-01-31T07:41:54.537Z,99.85
2023-01-31T07:42:54.560Z,99.75
2023-01-31T07:43:54.527Z,99.65
2023-01-31T07:44:54.535Z,99.44
2023-01-31T07:45:54.540Z,99.29
2023-01-31T07:46:54.483Z,99.18
2023-01-31T07:47:54.462Z,98.97
2023-01-31T07:48:54.468Z,98.77
2023-01-31T07:49:54.474Z,98.66
2023-01-31T07:50:54.449Z,98.66
2023-01-31T07:51:54.407Z,98.56
2023-01-31T07:52:54.448Z,98.46
2023-01-31T07:53:54.386Z,98.35
2023-01-31T07:54:54.398Z,98.25
2023-01-31T07:55:54.393Z,98.25
2023-01-31T07:56:54.414Z,98.14
2023-01-31T07:57:54.372Z,98.14
2023-01-31T07:58:54.345Z,98.04
2023-01-31T07:59:54.310Z,98.04
2023-01-31T08:00:54.349Z,98.04
2023-01-31T08:01:54.313Z,98.04
2023-01-31T08:02:54.277Z,98.04
2023-01-31T08:03:54.256Z,97.94
2023-01-31T08:04:54.266Z,97.94
2023-01-31T08:05:54.253Z,98.04
2023-01-31T08:06:54.232Z,98.04
2023-01-31T08:07:54.219Z,98.04
2023-01-31T08:08:54.186Z,98.04
2023-01-31T08:09:54.200Z,97.99
2023-01-31T08:10:54.151Z,97.89
2023-01-31T08:11:54.243Z,97.78
2023-01-31T08:12:54.150Z,97.68
2023-01-31T08:13:54.159Z,97.58
2023-01-31T08:14:54.099Z,97.58
2023-01-31T08:15:54.149Z,97.58
2023-01-31T08:16:54.126Z,97.58
2023-01-31T08:17:54.131Z,97.58
2023-01-31T08:18:54.068Z,97.58
2023-01-31T08:19:54.062Z,97.58
2023-01-31T08:20:54.033Z,97.47
2023-01-31T08:21:54.039Z,97.58
2023-01-31T08:22:54.040Z,97.47
2023-01-31T08:23:54.036Z,97.47
2023-01-31T08:24:54.012Z,97.37
2023-01-31T08:25:54.001Z,97.37
2023-01-31T08:26:54.125Z,97.37
2023-01-31T08:27:53.992Z,97.27
2023-01-31T08:28:54.019Z,97.27
2023-01-31T08:29:53.929Z,97.37
2023-01-31T08:31:07.815Z,97.37
2023-01-31T08:31:54.018Z,97.27
2023-01-31T08:32:53.889Z,97.27
2023-01-31T08:33:53.898Z,97.16
2023-01-31T08:34:53.884Z,97.16
2023-01-31T08:35:53.850Z,97.16
2023-01-31T08:36:53.863Z,97.16
2023-01-31T08:38:00.797Z,97.27
2023-01-31T08:38:53.857Z,97.27
2023-01-31T08:39:53.827Z,97.37
2023-01-31T08:40:53.776Z,97.37
2023-01-31T08:41:53.783Z,97.47
2023-01-31T08:42:53.731Z,97.37
2023-01-31T08:43:57.543Z,97.37
2023-01-31T08:44:53.712Z,97.27
2023-01-31T08:45:53.752Z,97.27
2023-01-31T08:46:53.784Z,97.16
2023-01-31T08:47:53.700Z,97.16
2023-01-31T08:48:53.712Z,97.27
2023-01-31T08:49:53.662Z,97.22
2023-01-31T08:50:53.626Z,97.12
2023-01-31T08:51:53.665Z,97.12
2023-01-31T08:52:53.601Z,97.12
2023-01-31T08:53:53.655Z,97.12
2023-01-31T08:54:53.643Z,97.07
2023-01-31T08:55:53.592Z,96.86
2023-01-31T08:56:53.561Z,96.61
2023-01-31T08:57:59.820Z,96.41
2023-01-31T08:58:53.535Z,96.15
2023-01-31T08:59:53.538Z,95.84
2023-01-31T09:00:53.502Z,95.73
2023-01-31T09:01:53.615Z,95.42
2023-01-31T09:02:53.594Z,95.11
2023-01-31T09:03:53.503Z,94.90
2023-01-31T09:04:53.456Z,94.80
2023-01-31T09:05:53.466Z,94.59
2023-01-31T09:06:53.473Z,94.49
2023-01-31T09:07:53.439Z,94.38
2023-01-31T09:08:53.406Z,94.28
2023-01-31T09:09:53.417Z,94.28
2023-01-31T09:10:53.375Z,94.38
2023-01-31T09:11:53.371Z,94.38
2023-01-31T09:12:53.376Z,94.38
2023-01-31T09:13:53.369Z,94.28
2023-01-31T09:14:53.308Z,94.32
2023-01-31T09:15:53.337Z,94.43
2023-01-31T09:16:53.378Z,94.53
2023-01-31T09:17:53.310Z,94.43
2023-01-31T09:18:53.274Z,94.53
2023-01-31T09:19:53.279Z,94.74
2023-01-31T09:20:53.275Z,94.95
2023-01-31T09:21:53.293Z,94.95
2023-01-31T09:22:53.224Z,94.95
2023-01-31T09:23:53.218Z,94.95
2023-01-31T09:24:53.217Z,94.95
2023-01-31T09:25:53.188Z,94.95
2023-01-31T09:26:53.349Z,94.95
2023-01-31T09:27:53.186Z,94.84
2023-01-31T09:28:53.166Z,94.95
2023-01-31T09:29:53.185Z,94.95
2023-01-31T09:30:53.187Z,95.15
2023-01-31T09:31:53.253Z,95.15
2023-01-31T09:32:53.102Z,95.26
2023-01-31T09:33:53.095Z,95.26
2023-01-31T09:34:53.097Z,95.15
2023-01-31T09:35:53.101Z,95.05
2023-01-31T09:36:53.034Z,95.05
2023-01-31T09:37:53.065Z,95.15
2023-01-31T09:38:53.031Z,95.15
2023-01-31T09:39:53.013Z,95.26
2023-01-31T09:40:52.991Z,95.26
2023-01-31T09:41:52.993Z,95.36
2023-01-31T09:42:52.940Z,95.36
2023-01-31T09:43:52.961Z,95.36
2023-01-31T09:44:52.957Z,95.47
2023-01-31T09:45:52.970Z,95.47
2023-01-31T09:46:53.002Z,95.47
2023-01-31T09:47:52.911Z,95.47
2023-01-31T09:48:52.869Z,95.57
2023-01-31T09:49:52.934Z,95.57
2023-01-31T09:50:52.857Z,95.32
2023-01-31T09:51:52.936Z,95.21
2023-01-31T09:52:52.840Z,95.11
2023-01-31T09:53:52.830Z,94.80
2023-01-31T09:54:52.791Z,94.59
2023-01-31T09:55:52.843Z,94.64
2023-01-31T09:56:52.793Z,94.74
2023-01-31T09:57:52.835Z,94.84
2023-01-31T09:58:52.745Z,94.74
2023-01-31T09:59:52.760Z,94.74
2023-01-31T10:00:52.738Z,94.84
2023-01-31T10:01:52.793Z,94.95
2023-01-31T10:02:52.697Z,95.05
2023-01-31T10:03:52.748Z,95.36
2023-01-31T10:04:52.670Z,95.57
2023-01-31T10:05:52.689Z,95.67
2023-01-31T10:06:52.682Z,95.67
2023-01-31T10:07:52.673Z,95.57
2023-01-31T10:08:52.631Z,95.57
2023-01-31T10:09:52.653Z,95.67
2023-01-31T10:10:52.596Z,95.78
2023-01-31T10:11:52.599Z,95.89
2023-01-31T10:12:52.592Z,95.99
2023-01-31T10:13:52.562Z,95.99
2023-01-31T10:14:52.528Z,95.94
2023-01-31T10:15:52.540Z,95.84
2023-01-31T10:16:52.518Z,95.84
2023-01-31T10:17:52.664Z,95.73
2023-01-31T10:18:52.506Z,95.63
2023-01-31T10:19:52.511Z,95.63
2023-01-31T10:20:52.488Z,95.63
2023-01-31T10:21:52.478Z,95.53
2023-01-31T10:22:52.434Z,95.32
2023-01-31T10:23:52.475Z,95.11
2023-01-31T10:24:52.445Z,95.11
2023-01-31T10:25:52.454Z,95.07
2023-01-31T10:26:52.523Z,95.17
2023-01-31T10:27:52.411Z,94.90
2023-01-31T10:28:52.348Z,94.70
2023-01-31T10:29:52.362Z,94.70
2023-01-31T10:30:52.378Z,94.80
2023-01-31T10:31:52.364Z,95.01
2023-01-31T10:32:52.300Z,95.21
2023-01-31T10:33:52.324Z,95.42
2023-01-31T10:34:52.273Z,95.32
2023-01-31T10:35:52.279Z,95.11
2023-01-31T10:36:52.258Z,95.11
2023-01-31T10:37:52.292Z,94.90
2023-01-31T10:38:52.245Z,94.90
2023-01-31T10:39:52.224Z,95.11
2023-01-31T10:40:52.196Z,95.21
2023-01-31T10:41:52.200Z,95.42
2023-01-31T10:42:52.188Z,95.21
2023-01-31T10:43:52.184Z,95.11
2023-01-31T10:44:52.149Z,94.96
2023-01-31T10:45:52.156Z,94.76
2023-01-31T10:46:52.128Z,94.55
2023-01-31T10:47:52.173Z,94.55
2023-01-31T10:48:52.121Z,93.82
2023-01-31T10:49:52.133Z,93.68
2023-01-31T10:50:52.062Z,93.26
2023-01-31T10:51:52.081Z,92.84
2023-01-31T10:52:52.054Z,92.94
2023-01-31T10:53:52.055Z,92.80
2023-01-31T10:54:52.022Z,92.59
2023-01-31T10:55:52.171Z,92.28
2023-01-31T10:56:51.976Z,91.55
2023-01-31T10:57:51.999Z,91.24
2023-01-31T10:58:51.967Z,91.14
2023-01-31T10:59:51.963Z,90.93
2023-01-31T11:00:52.006Z,90.93
2023-01-31T11:01:51.955Z,91.18
2023-01-31T11:02:51.917Z,91.18
2023-01-31T11:03:51.931Z,91.49
2023-01-31T11:04:51.877Z,91.80
2023-01-31T11:05:51.932Z,91.91
2023-01-31T11:06:51.888Z,91.91
2023-01-31T11:07:51.888Z,91.86
2023-01-31T11:08:51.828Z,91.76
2023-01-31T11:09:51.851Z,91.76
2023-01-31T11:10:51.807Z,91.76
2023-01-31T11:11:51.838Z,91.76
2023-01-31T11:12:51.780Z,91.86
2023-01-31T11:13:51.799Z,91.86
2023-01-31T11:14:53.909Z,91.76
2023-01-31T11:15:51.758Z,91.86
2023-01-31T11:16:51.763Z,92.18
2023-01-31T11:17:51.764Z,92.18
2023-01-31T11:18:51.695Z,91.86
2023-01-31T11:19:51.712Z,91.86
2023-01-31T11:20:51.680Z,92.18
2023-01-31T11:21:51.686Z,92.18
2023-01-31T11:22:51.726Z,92.18
2023-01-31T11:23:51.654Z,92.28
2023-01-31T11:24:51.634Z,92.18
2023-01-31T11:25:51.642Z,91.97
2023-01-31T11:26:51.603Z,91.66
2023-01-31T11:27:51.629Z,91.35
2023-01-31T11:28:51.561Z,91.55
2023-01-31T11:29:51.594Z,91.97
2023-01-31T11:30:51.599Z,91.97
2023-01-31T11:31:51.576Z,92.07
2023-01-31T11:32:51.531Z,92.18
2023-01-31T11:33:51.525Z,92.18
2023-01-31T11:34:51.514Z,92.18
2023-01-31T11:35:51.499Z,92.18
2023-01-31T11:36:51.517Z,92.07
2023-01-31T11:37:53.779Z,92.07
2023-01-31T11:38:51.489Z,92.18
2023-01-31T11:39:51.440Z,92.28
2023-01-31T11:40:51.428Z,92.28
2023-01-31T11:41:51.430Z,92.07
2023-01-31T11:42:51.365Z,91.86
2023-01-31T11:43:51.412Z,91.86
2023-01-31T11:44:51.349Z,91.97
2023-01-31T11:45:51.387Z,91.86
2023-01-31T11:46:51.348Z,91.55
2023-01-31T11:47:51.359Z,91.66
2023-01-31T11:48:51.323Z,91.66
2023-01-31T11:49:51.345Z,91.76
2023-01-31T11:50:51.281Z,91.76
2023-01-31T11:51:51.295Z,91.86
2023-01-31T11:52:51.247Z,91.86
2023-01-31T11:53:51.302Z,91.86
2023-01-31T11:54:51.236Z,91.97
2023-01-31T11:55:51.272Z,91.97
2023-01-31T11:56:51.236Z,92.07
2023-01-31T11:57:51.225Z,92.18
2023-01-31T11:58:51.173Z,92.18
2023-01-31T11:59:51.243Z,92.07
2023-01-31T12:00:51.150Z,92.07
2023-01-31T12:01:51.172Z,92.28
2023-01-31T12:02:51.117Z,92.38
2023-01-31T12:04:01.885Z,92.45
2023-01-31T12:04:51.119Z,92.35
2023-01-31T12:05:51.097Z,92.35
2023-01-31T12:06:51.092Z,92.03
2023-01-31T12:07:51.102Z,92.03
2023-01-31T12:08:51.028Z,91.72
2023-01-31T12:09:51.062Z,91.52
2023-01-31T12:10:51.017Z,91.10
2023-01-31T12:11:51.016Z,90.89
2023-01-31T12:12:51.023Z,90.69
2023-01-31T12:13:51.013Z,90.58
2023-01-31T12:14:50.976Z,90.69
2023-01-31T12:15:51.010Z,90.85
2023-01-31T12:16:51.005Z,90.64
2023-01-31T12:17:51.480Z,90.33
2023-01-31T12:18:50.910Z,90.23
2023-01-31T12:19:50.896Z,90.33
2023-01-31T12:20:50.937Z,90.23
2023-01-31T12:21:50.900Z,90.33
2023-01-31T12:22:50.890Z,90.33
2023-01-31T12:23:51.943Z,90.54
2023-01-31T12:24:50.862Z,90.54
2023-01-31T12:25:50.820Z,90.02
2023-01-31T12:26:50.896Z,90.02
2023-01-31T12:27:50.809Z,90.12
2023-01-31T12:28:50.782Z,90.02
2023-01-31T12:29:50.761Z,90.02
2023-01-31T12:30:50.943Z,90.02
2023-01-31T12:31:50.876Z,90.23
2023-01-31T12:32:50.739Z,90.33
2023-01-31T12:33:50.733Z,90.12
2023-01-31T12:35:00.806Z,90.02
2023-01-31T12:35:50.691Z,90.02
2023-01-31T12:36:50.693Z,90.02
2023-01-31T12:37:50.687Z,89.50
2023-01-31T12:38:50.665Z,89.40
2023-01-31T12:39:50.621Z,89.61
2023-01-31T12:40:50.710Z,89.81
2023-01-31T12:41:50.603Z,89.50
2023-01-31T12:42:50.629Z,89.40
2023-01-31T12:43:50.593Z,89.29
2023-01-31T12:44:50.597Z,89.29
2023-01-31T12:45:50.577Z,89.19
2023-01-31T12:46:57.651Z,89.19
2023-01-31T12:47:50.575Z,89.09
2023-01-31T12:48:50.558Z,88.98
2023-01-31T12:49:50.488Z,88.78
2023-01-31T12:50:50.570Z,88.78
2023-01-31T12:51:51.736Z,88.46